Time;durP1;ratioP1;P1;durP2;ratioP2;P2;SDS_P1;SDS_P2;PMS_P1;PMS_P2;Temp;Humidity;BMP_temperature;BMP_pressure;BME280_temperature;BME280_humidity;BME280_pressure;Samples;Min_cycle;Max_cycle;Signal;HPM_P1;HPM_P2
2022/06/01 00:00:32;;;;;;;2.78;2.58;;;;;;;;;;5086510;28;20201;-81
2022/06/01 00:03:00;;;;;;;2.60;2.40;;;;;;;;;;5085445;28;20221;-80
2022/06/01 00:05:28;;;;;;;2.05;1.95;;;;;;;;;;5086506;28;20665;-80
2022/06/01 00:07:55;;;;;;;3.08;2.80;;;;;;;;;;5086039;28;20621;-80
2022/06/01 00:10:23;;;;;;;2.47;2.33;;;;;;;;;;5086571;28;20587;-80
2022/06/01 00:12:50;;;;;;;2.78;2.58;;;;;;;;;;5085474;28;20274;-80
2022/06/01 00:15:19;;;;;;;2.60;2.40;;;;;;;;;;5085235;28;20208;-82
2022/06/01 00:17:48;;;;;;;2.20;2.08;;;;;;;;;;5086039;28;20250;-82
2022/06/01 00:20:15;;;;;;;2.33;1.95;;;;;;;;;;5085605;28;20721;-81
2022/06/01 00:22:43;;;;;;;2.88;1.85;;;;;;;;;;5083959;28;20216;-82
2022/06/01 00:25:12;;;;;;;3.08;2.28;;;;;;;;;;5084831;28;20202;-81
2022/06/01 00:27:39;;;;;;;1.90;1.80;;;;;;;;;;5085411;28;20220;-81
2022/06/01 00:30:10;;;;;;;2.25;2.05;;;;;;;;;;5086155;28;20227;-80
2022/06/01 00:32:37;;;;;;;1.95;1.77;;;;;;;;;;5085230;28;20221;-80
2022/06/01 00:35:08;;;;;;;2.42;2.25;;;;;;;;;;5082760;28;20201;-80
2022/06/01 00:37:35;;;;;;;2.10;2.00;;;;;;;;;;5084197;28;20205;-81
2022/06/01 00:40:03;;;;;;;2.10;2.00;;;;;;;;;;5085605;28;20205;-79
2022/06/01 00:42:33;;;;;;;1.30;1.23;;;;;;;;;;5084998;28;20221;-79
2022/06/01 00:45:01;;;;;;;1.92;1.83;;;;;;;;;;5083326;28;20197;-79
2022/06/01 00:47:29;;;;;;;1.65;1.55;;;;;;;;;;5083870;28;20200;-80
2022/06/01 00:50:01;;;;;;;1.92;1.83;;;;;;;;;;5084216;28;20247;-79
2022/06/01 00:52:45;;;;;;;1.63;1.52;;;;;;;;;;5082968;28;20217;-80
2022/06/01 00:55:18;;;;;;;2.40;2.20;;;;;;;;;;5081112;28;20571;-80
2022/06/01 00:57:48;;;;;;;2.63;2.42;;;;;;;;;;5083634;28;20201;-80
2022/06/01 01:00:20;;;;;;;1.50;1.40;;;;;;;;;;5083628;28;20205;-79
2022/06/01 01:02:48;;;;;;;1.60;1.50;;;;;;;;;;5081134;28;20252;-79
2022/06/01 01:05:18;;;;;;;2.00;1.90;;;;;;;;;;5083883;28;20201;-79
2022/06/01 01:07:47;;;;;;;1.60;1.50;;;;;;;;;;5083839;28;20201;-79
2022/06/01 01:10:16;;;;;;;1.40;1.30;;;;;;;;;;5083366;28;20239;-80
2022/06/01 01:12:59;;;;;;;2.45;2.22;;;;;;;;;;5081323;28;20617;-80
2022/06/01 01:15:32;;;;;;;2.90;2.33;;;;;;;;;;5084017;28;20271;-79
2022/06/01 01:18:01;;;;;;;2.10;2.00;;;;;;;;;;5081120;28;20250;-80
2022/06/01 01:20:28;;;;;;;2.20;2.10;;;;;;;;;;5078092;28;20688;-80
2022/06/01 01:23:07;;;;;;;2.17;2.00;;;;;;;;;;5079535;28;20221;-79
2022/06/01 01:25:39;;;;;;;2.95;2.60;;;;;;;;;;5083267;28;20201;-80
2022/06/01 01:28:09;;;;;;;1.83;1.70;;;;;;;;;;5082142;28;20209;-79
2022/06/01 01:30:54;;;;;;;1.77;1.67;;;;;;;;;;5082523;28;20235;-80
2022/06/01 01:33:25;;;;;;;2.58;2.38;;;;;;;;;;5079865;28;20212;-79
2022/06/01 01:35:56;;;;;;;2.13;2.00;;;;;;;;;;5077366;28;20204;-79
2022/06/01 01:38:30;;;;;;;1.83;1.73;;;;;;;;;;5079640;28;20696;-81
2022/06/01 01:41:08;;;;;;;2.63;2.42;;;;;;;;;;5075434;28;20200;-80
2022/06/01 01:43:42;;;;;;;3.40;3.10;;;;;;;;;;5074465;28;20208;-79
2022/06/01 01:46:09;;;;;;;2.35;2.15;;;;;;;;;;5073810;28;20254;-80
2022/06/01 01:48:38;;;;;;;2.53;2.13;;;;;;;;;;5075176;28;20221;-79
2022/06/01 01:51:06;;;;;;;2.45;2.25;;;;;;;;;;5075200;28;20224;-80
2022/06/01 01:53:34;;;;;;;1.70;1.60;;;;;;;;;;5075362;28;20225;-80
2022/06/01 01:56:26;;;;;;;2.00;1.90;;;;;;;;;;5075484;28;20208;-80
2022/06/01 01:59:30;;;;;;;1.90;1.77;;;;;;;;;;5075682;28;20207;-80
2022/06/01 02:02:02;;;;;;;1.70;1.60;;;;;;;;;;5078158;28;20263;-79
2022/06/01 02:07:29;;;;;;;3.10;2.90;;;;;;;;;;5082206;28;20737;-79
2022/06/01 02:12:43;;;;;;;1.90;1.80;;;;;;;;;;5080946;28;20248;-79
2022/06/01 02:15:14;;;;;;;1.67;1.58;;;;;;;;;;5082401;28;20738;-80
2022/06/01 02:17:49;;;;;;;2.17;2.08;;;;;;;;;;5085491;28;20227;-79
2022/06/01 02:20:23;;;;;;;1.65;1.50;;;;;;;;;;5085434;28;20223;-81
2022/06/01 02:22:50;;;;;;;1.75;1.65;;;;;;;;;;5083994;28;20224;-80
2022/06/01 02:25:18;;;;;;;1.92;1.83;;;;;;;;;;5084251;28;20201;-80
2022/06/01 02:27:49;;;;;;;2.10;2.00;;;;;;;;;;5084048;28;20205;-81
2022/06/01 02:30:19;;;;;;;1.83;1.73;;;;;;;;;;5081624;28;20221;-80
2022/06/01 02:32:47;;;;;;;2.03;1.92;;;;;;;;;;5081513;28;20221;-80
2022/06/01 02:35:18;;;;;;;2.60;2.40;;;;;;;;;;5081992;28;20673;-80
2022/06/01 02:37:49;;;;;;;3.65;2.45;;;;;;;;;;5081091;28;20626;-80
2022/06/01 02:40:20;;;;;;;3.13;2.92;;;;;;;;;;5080196;28;20573;-80
2022/06/01 02:42:51;;;;;;;2.60;2.45;;;;;;;;;;5081213;28;20225;-80
2022/06/01 02:45:21;;;;;;;2.30;2.10;;;;;;;;;;5081414;28;20692;-81
2022/06/01 02:47:50;;;;;;;3.67;2.55;;;;;;;;;;5080262;28;20239;-80
2022/06/01 02:50:20;;;;;;;2.60;2.40;;;;;;;;;;5080129;28;20639;-80
2022/06/01 02:52:48;;;;;;;2.15;2.05;;;;;;;;;;5080804;28;20224;-80
2022/06/01 02:55:16;;;;;;;2.95;2.72;;;;;;;;;;5078145;28;20205;-80
2022/06/01 02:57:45;;;;;;;3.30;3.00;;;;;;;;;;5078311;28;20205;-80
2022/06/01 03:00:18;;;;;;;3.10;2.90;;;;;;;;;;5077055;28;20673;-79
2022/06/01 03:02:46;;;;;;;2.00;1.90;;;;;;;;;;5078496;28;20605;-80
2022/06/01 03:05:15;;;;;;;1.90;1.80;;;;;;;;;;5079997;28;20209;-80
2022/06/01 03:07:42;;;;;;;1.52;1.42;;;;;;;;;;5080292;28;20223;-80
2022/06/01 03:10:10;;;;;;;1.65;1.55;;;;;;;;;;5078973;28;20225;-79
2022/06/01 03:12:37;;;;;;;1.70;1.60;;;;;;;;;;5078545;28;20243;-79
2022/06/01 03:15:07;;;;;;;1.50;1.40;;;;;;;;;;5097287;22;20764;-80
2022/06/01 03:17:36;;;;;;;1.92;1.83;;;;;;;;;;5056181;28;20233;-79
2022/06/01 03:20:07;;;;;;;2.42;2.22;;;;;;;;;;5056452;28;20662;-80
2022/06/01 03:22:35;;;;;;;1.63;1.52;;;;;;;;;;5055814;28;20740;-81
2022/06/01 03:25:03;;;;;;;2.17;2.08;;;;;;;;;;5055418;28;20201;-80
2022/06/01 03:27:30;;;;;;;2.83;2.63;;;;;;;;;;5053229;28;20733;-80
2022/06/01 03:29:57;;;;;;;1.92;1.83;;;;;;;;;;5059388;28;20228;-81
2022/06/01 03:32:25;;;;;;;3.05;2.85;;;;;;;;;;5066628;28;20243;-80
2022/06/01 03:34:54;;;;;;;2.17;2.08;;;;;;;;;;5063299;28;20209;-81
2022/06/01 03:37:22;;;;;;;2.63;2.38;;;;;;;;;;5057052;28;20212;-81
2022/06/01 03:39:49;;;;;;;2.35;2.15;;;;;;;;;;5055297;28;20206;-79
2022/06/01 03:42:16;;;;;;;2.15;2.05;;;;;;;;;;5055647;28;20673;-80
2022/06/01 03:47:40;;;;;;;1.90;1.80;;;;;;;;;;4955946;29;20340;-81
2022/06/01 03:50:10;;;;;;;2.20;2.10;;;;;;;;;;5018006;28;20222;-80
2022/06/01 03:52:37;;;;;;;2.03;1.92;;;;;;;;;;5047969;28;20217;-80
2022/06/01 03:55:08;;;;;;;2.08;1.88;;;;;;;;;;5048561;28;20266;-79
2022/06/01 03:57:35;;;;;;;1.58;1.48;;;;;;;;;;5049480;28;20204;-79
2022/06/01 04:00:03;;;;;;;1.15;1.10;;;;;;;;;;5048677;28;20202;-81
2022/06/01 04:02:30;;;;;;;1.10;1.10;;;;;;;;;;5047637;28;20213;-80
2022/06/01 04:04:59;;;;;;;1.02;0.90;;;;;;;;;;5049808;28;20237;-79
2022/06/01 04:07:28;;;;;;;0.80;0.80;;;;;;;;;;5041198;28;20236;-82
2022/06/01 04:09:55;;;;;;;0.80;0.80;;;;;;;;;;5038190;28;20233;-81
2022/06/01 04:12:22;;;;;;;1.02;1.02;;;;;;;;;;5037525;28;20225;-82
2022/06/01 04:14:50;;;;;;;0.77;0.77;;;;;;;;;;5037831;28;20210;-82
2022/06/01 04:17:17;;;;;;;1.23;1.23;;;;;;;;;;5037580;28;20216;-81
2022/06/01 04:19:44;;;;;;;1.83;1.70;;;;;;;;;;5037045;28;20194;-81
2022/06/01 04:22:13;;;;;;;1.85;1.75;;;;;;;;;;5036883;28;20202;-81
2022/06/01 04:24:43;;;;;;;1.73;1.63;;;;;;;;;;5037895;28;20670;-80
2022/06/01 04:27:10;;;;;;;1.50;1.40;;;;;;;;;;5037605;28;20229;-81
2022/06/01 04:29:37;;;;;;;1.83;1.73;;;;;;;;;;5036379;28;20209;-81
2022/06/01 04:32:09;;;;;;;2.13;1.77;;;;;;;;;;5036549;28;20289;-82
2022/06/01 04:34:36;;;;;;;2.00;1.90;;;;;;;;;;5037424;28;20210;-80
2022/06/01 04:37:04;;;;;;;2.97;2.20;;;;;;;;;;5036873;28;20222;-80
2022/06/01 04:39:31;;;;;;;3.35;2.20;;;;;;;;;;5037616;28;20198;-79
2022/06/01 04:42:00;;;;;;;2.50;2.30;;;;;;;;;;5036501;28;20194;-80
2022/06/01 04:44:27;;;;;;;2.88;2.67;;;;;;;;;;5037104;28;20207;-79
2022/06/01 04:46:55;;;;;;;1.98;1.88;;;;;;;;;;5036559;28;20233;-80
2022/06/01 04:49:22;;;;;;;2.08;1.92;;;;;;;;;;5035799;28;20202;-81
2022/06/01 04:51:49;;;;;;;1.92;1.83;;;;;;;;;;5036054;28;20229;-81
2022/06/01 04:54:16;;;;;;;1.70;1.60;;;;;;;;;;5036114;28;20205;-81
2022/06/01 04:56:44;;;;;;;1.67;1.58;;;;;;;;;;5035450;28;20252;-80
2022/06/01 04:59:16;;;;;;;2.55;2.33;;;;;;;;;;5036372;28;20202;-82
2022/06/01 05:01:44;;;;;;;1.80;1.70;;;;;;;;;;5035985;28;20233;-81
2022/06/01 05:04:11;;;;;;;1.63;1.52;;;;;;;;;;5035413;28;20233;-81
2022/06/01 05:06:39;;;;;;;1.55;1.45;;;;;;;;;;5035391;28;20234;-79
2022/06/01 05:09:06;;;;;;;1.98;1.30;;;;;;;;;;5038698;28;20201;-80
2022/06/01 05:11:35;;;;;;;1.30;1.20;;;;;;;;;;5055333;28;20221;-82
2022/06/01 05:14:02;;;;;;;1.17;1.17;;;;;;;;;;5055680;28;20267;-80
2022/06/01 05:16:31;;;;;;;1.45;1.35;;;;;;;;;;5062086;28;20294;-80
2022/06/01 05:18:59;;;;;;;0.85;0.85;;;;;;;;;;5068715;28;20200;-79
2022/06/01 05:21:26;;;;;;;1.88;1.20;;;;;;;;;;5074999;28;20205;-80
2022/06/01 05:23:53;;;;;;;1.27;1.25;;;;;;;;;;5073702;28;20262;-80
2022/06/01 05:26:20;;;;;;;1.42;1.42;;;;;;;;;;5074894;28;20232;-80
2022/06/01 05:28:48;;;;;;;1.15;1.13;;;;;;;;;;5074929;28;20212;-80
2022/06/01 05:31:16;;;;;;;1.13;1.10;;;;;;;;;;5074304;28;20221;-80
2022/06/01 05:33:45;;;;;;;1.80;1.70;;;;;;;;;;5074254;28;20205;-80
2022/06/01 05:36:14;;;;;;;1.23;1.13;;;;;;;;;;5075307;28;20224;-80
2022/06/01 05:38:42;;;;;;;1.20;1.20;;;;;;;;;;5075008;28;20256;-80
2022/06/01 05:41:09;;;;;;;1.50;1.40;;;;;;;;;;5076483;28;20292;-84
2022/06/01 05:43:37;;;;;;;1.58;1.48;;;;;;;;;;5079964;28;20208;-83
2022/06/01 05:46:05;;;;;;;1.63;1.52;;;;;;;;;;5061156;28;20230;-84
2022/06/01 05:48:32;;;;;;;1.52;1.42;;;;;;;;;;5038675;28;20229;-85
2022/06/01 05:51:02;;;;;;;1.80;1.70;;;;;;;;;;5040070;28;20226;-83
2022/06/01 05:53:29;;;;;;;1.00;1.00;;;;;;;;;;5043087;28;20224;-85
2022/06/01 05:55:56;;;;;;;1.80;1.70;;;;;;;;;;5038922;28;20222;-84
2022/06/01 05:58:26;;;;;;;1.90;1.80;;;;;;;;;;5043275;28;20213;-85
2022/06/01 06:00:55;;;;;;;1.60;1.50;;;;;;;;;;5059382;28;20606;-84
2022/06/01 06:03:26;;;;;;;1.52;1.40;;;;;;;;;;5055948;28;20208;-84
2022/06/01 06:06:13;;;;;;;1.80;1.70;;;;;;;;;;5063925;28;20228;-84
2022/06/01 06:08:49;;;;;;;1.48;1.40;;;;;;;;;;5058975;28;20209;-84
2022/06/01 06:11:18;;;;;;;1.70;1.60;;;;;;;;;;5057210;28;20225;-84
2022/06/01 06:13:46;;;;;;;2.17;1.77;;;;;;;;;;5054331;28;20259;-83
2022/06/01 06:16:15;;;;;;;1.80;1.70;;;;;;;;;;5056182;28;20237;-83
2022/06/01 06:18:45;;;;;;;3.00;2.00;;;;;;;;;;5055864;28;20201;-84
2022/06/01 06:21:13;;;;;;;2.17;2.03;;;;;;;;;;5056184;28;20599;-83
2022/06/01 06:23:42;;;;;;;1.67;1.58;;;;;;;;;;5048384;28;20300;-83
2022/06/01 06:26:09;;;;;;;2.13;1.77;;;;;;;;;;5049974;28;20252;-83
2022/06/01 06:28:37;;;;;;;1.23;1.17;;;;;;;;;;5049706;28;20216;-82
2022/06/01 06:31:05;;;;;;;4.50;2.05;;;;;;;;;;5053650;28;20232;-84
2022/06/01 06:33:32;;;;;;;1.48;1.38;;;;;;;;;;5049558;28;20194;-85
2022/06/01 06:36:02;;;;;;;1.55;1.45;;;;;;;;;;5049832;28;20228;-84
2022/06/01 06:38:32;;;;;;;1.40;1.30;;;;;;;;;;5050630;28;20209;-85
2022/06/01 06:41:01;;;;;;;1.13;1.13;;;;;;;;;;5058122;28;20255;-82
2022/06/01 06:43:31;;;;;;;1.83;1.73;;;;;;;;;;5054917;28;20583;-83
2022/06/01 06:46:02;;;;;;;1.95;1.65;;;;;;;;;;5063486;28;20225;-83
2022/06/01 06:48:29;;;;;;;2.60;1.65;;;;;;;;;;5061850;28;20205;-83
2022/06/01 06:50:57;;;;;;;2.15;1.92;;;;;;;;;;5056235;28;20244;-84
2022/06/01 06:53:25;;;;;;;2.25;2.08;;;;;;;;;;5059201;28;20197;-84
2022/06/01 06:55:53;;;;;;;1.92;1.55;;;;;;;;;;5056533;28;20316;-84
2022/06/01 06:58:21;;;;;;;1.92;1.83;;;;;;;;;;5056496;28;20678;-84
2022/06/01 07:00:49;;;;;;;1.40;1.30;;;;;;;;;;5055064;28;20256;-84
2022/06/01 07:03:16;;;;;;;1.38;1.27;;;;;;;;;;5053602;28;20638;-85
2022/06/01 07:08:29;;;;;;;1.88;1.52;;;;;;;;;;5056141;28;20216;-84
2022/06/01 07:10:58;;;;;;;1.08;1.08;;;;;;;;;;5056121;28;20556;-85
2022/06/01 07:13:28;;;;;;;1.10;1.10;;;;;;;;;;5054763;28;20576;-85
2022/06/01 07:16:07;;;;;;;1.33;1.15;;;;;;;;;;5053608;28;20222;-83
2022/06/01 07:18:35;;;;;;;1.63;1.20;;;;;;;;;;5055279;28;20216;-84
2022/06/01 07:21:03;;;;;;;1.08;1.05;;;;;;;;;;5055786;28;20209;-85
2022/06/01 07:23:30;;;;;;;1.42;1.33;;;;;;;;;;5055522;28;20205;-85
2022/06/01 07:25:58;;;;;;;0.98;0.98;;;;;;;;;;5055542;28;20225;-84
2022/06/01 07:28:26;;;;;;;1.52;1.42;;;;;;;;;;5055864;28;20653;-87
2022/06/01 07:30:56;;;;;;;1.92;1.50;;;;;;;;;;5055982;28;20271;-85
2022/06/01 07:33:25;;;;;;;1.55;1.20;;;;;;;;;;5055960;28;20252;-85
2022/06/01 07:35:53;;;;;;;1.10;1.00;;;;;;;;;;5056474;28;20763;-85
2022/06/01 07:43:52;;;;;;;1.30;1.20;;;;;;;;;;5054970;28;20212;-84
2022/06/01 07:46:19;;;;;;;1.50;1.40;;;;;;;;;;5055006;28;20279;-84
2022/06/01 07:48:49;;;;;;;1.88;1.77;;;;;;;;;;5054955;28;20614;-86
2022/06/01 07:51:18;;;;;;;1.17;1.10;;;;;;;;;;5057247;28;20216;-85
2022/06/01 07:53:45;;;;;;;1.42;1.30;;;;;;;;;;5056982;28;20573;-84
2022/06/01 07:56:13;;;;;;;2.20;2.10;;;;;;;;;;5055111;28;20234;-84
2022/06/01 07:58:40;;;;;;;1.48;1.38;;;;;;;;;;5054476;28;20210;-83
2022/06/01 08:01:09;;;;;;;1.58;1.27;;;;;;;;;;5054489;28;20209;-83
2022/06/01 08:03:36;;;;;;;1.27;1.25;;;;;;;;;;5054650;28;20689;-83
2022/06/01 08:06:04;;;;;;;2.55;1.30;;;;;;;;;;5055419;28;20232;-85
2022/06/01 08:08:31;;;;;;;1.00;1.00;;;;;;;;;;5055072;28;20202;-83
2022/06/01 08:10:59;;;;;;;0.80;0.80;;;;;;;;;;5056161;28;20216;-84
2022/06/01 08:13:26;;;;;;;2.35;1.00;;;;;;;;;;5053735;28;20325;-83
2022/06/01 08:15:54;;;;;;;0.95;0.88;;;;;;;;;;5055290;28;20233;-86
2022/06/01 08:18:25;;;;;;;1.25;1.15;;;;;;;;;;5055163;28;20235;-85
2022/06/01 08:20:53;;;;;;;1.55;1.45;;;;;;;;;;5055476;28;20206;-85
2022/06/01 08:23:25;;;;;;;1.42;1.33;;;;;;;;;;5054191;28;20197;-85
2022/06/01 08:25:52;;;;;;;1.80;1.70;;;;;;;;;;5055151;28;20267;-87
2022/06/01 08:28:20;;;;;;;1.60;1.50;;;;;;;;;;5055289;28;20201;-87
2022/06/01 08:30:48;;;;;;;1.35;1.25;;;;;;;;;;5054870;28;20206;-84
2022/06/01 08:33:16;;;;;;;1.80;1.70;;;;;;;;;;5056189;28;20229;-84
2022/06/01 08:35:48;;;;;;;3.00;2.67;;;;;;;;;;5055351;28;20732;-83
2022/06/01 08:38:15;;;;;;;1.70;1.60;;;;;;;;;;5055474;28;20206;-82
2022/06/01 08:40:52;;;;;;;2.75;1.70;;;;;;;;;;5056023;28;20216;-84
2022/06/01 08:43:25;;;;;;;2.03;1.70;;;;;;;;;;5055754;28;20224;-84
2022/06/01 08:45:58;;;;;;;1.80;1.58;;;;;;;;;;5060354;28;20725;-85
2022/06/01 08:48:32;;;;;;;1.48;1.38;;;;;;;;;;5057793;28;20220;-84
2022/06/01 08:51:01;;;;;;;1.70;1.60;;;;;;;;;;5055973;28;20205;-84
2022/06/01 08:53:29;;;;;;;2.50;1.60;;;;;;;;;;5054755;28;20233;-84
2022/06/01 08:56:01;;;;;;;2.08;1.70;;;;;;;;;;5055461;28;20228;-84
2022/06/01 08:58:35;;;;;;;3.95;1.70;;;;;;;;;;5055539;28;20256;-83
2022/06/01 09:01:23;;;;;;;1.45;1.35;;;;;;;;;;5054908;28;20570;-83
2022/06/01 09:04:00;;;;;;;1.75;1.42;;;;;;;;;;5054590;28;20213;-84
2022/06/01 09:06:33;;;;;;;0.98;0.98;;;;;;;;;;5054680;28;20256;-84
2022/06/01 09:09:07;;;;;;;1.27;1.23;;;;;;;;;;5054791;28;20781;-83
2022/06/01 09:11:37;;;;;;;0.88;0.88;;;;;;;;;;5054737;28;20205;-83
2022/06/01 09:14:10;;;;;;;1.75;1.65;;;;;;;;;;5053930;28;20226;-85
2022/06/01 09:16:39;;;;;;;1.25;1.20;;;;;;;;;;5036898;28;20236;-82
2022/06/01 09:19:11;;;;;;;1.27;1.17;;;;;;;;;;5054427;28;20204;-86
2022/06/01 09:24:28;;;;;;;1.42;1.33;;;;;;;;;;5049089;28;20677;-85
2022/06/01 09:27:00;;;;;;;1.60;1.50;;;;;;;;;;5053141;28;20252;-83
2022/06/01 09:29:29;;;;;;;1.40;1.30;;;;;;;;;;5058525;28;20235;-83
2022/06/01 09:32:01;;;;;;;2.08;1.35;;;;;;;;;;5058441;28;20258;-83
2022/06/01 09:34:39;;;;;;;2.00;1.38;;;;;;;;;;5059644;28;20249;-84
2022/06/01 09:37:11;;;;;;;1.48;1.38;;;;;;;;;;5059295;28;20225;-82
2022/06/01 09:39:48;;;;;;;1.90;1.80;;;;;;;;;;5059052;28;20206;-83
2022/06/01 09:42:25;;;;;;;1.40;1.30;;;;;;;;;;5057332;28;20879;-84
2022/06/01 09:44:54;;;;;;;1.00;0.93;;;;;;;;;;5057946;28;20258;-83
2022/06/01 09:47:39;;;;;;;1.63;1.10;;;;;;;;;;5054122;28;20320;-83
2022/06/01 09:50:24;;;;;;;1.38;1.30;;;;;;;;;;5058783;28;20232;-83
2022/06/01 09:52:56;;;;;;;1.30;1.20;;;;;;;;;;5058099;28;20220;-84
2022/06/01 09:55:28;;;;;;;1.70;1.40;;;;;;;;;;5052846;28;20236;-84
2022/06/01 09:58:07;;;;;;;1.42;1.33;;;;;;;;;;5058468;28;20201;-84
2022/06/01 10:06:26;;;;;;;2.47;1.50;;;;;;;;;;5059092;28;20248;-84
2022/06/01 10:09:09;;;;;;;1.33;1.25;;;;;;;;;;5058621;28;20244;-84
2022/06/01 10:11:40;;;;;;;1.30;1.20;;;;;;;;;;5057080;28;20209;-84
2022/06/01 10:14:21;;;;;;;1.55;1.45;;;;;;;;;;5059087;28;20225;-84
2022/06/01 10:17:06;;;;;;;1.20;1.10;;;;;;;;;;5051822;28;20306;-83
2022/06/01 10:19:37;;;;;;;1.73;1.10;;;;;;;;;;5057713;28;20220;-83
2022/06/01 10:22:12;;;;;;;1.65;1.55;;;;;;;;;;5057455;28;20221;-83
2022/06/01 10:24:45;;;;;;;1.10;1.10;;;;;;;;;;5058379;28;20205;-83
2022/06/01 10:27:12;;;;;;;1.48;1.38;;;;;;;;;;5058566;28;20221;-83
2022/06/01 10:29:44;;;;;;;0.98;0.95;;;;;;;;;;5058245;28;20206;-83
2022/06/01 10:32:19;;;;;;;1.38;1.27;;;;;;;;;;5058676;28;20214;-85
2022/06/01 10:34:51;;;;;;;1.10;1.10;;;;;;;;;;5057051;28;20593;-84
2022/06/01 10:37:25;;;;;;;1.60;1.13;;;;;;;;;;5057859;28;20212;-84
2022/06/01 10:40:00;;;;;;;1.30;1.20;;;;;;;;;;5059153;28;20308;-84
2022/06/01 10:45:17;;;;;;;1.60;1.27;;;;;;;;;;5057976;28;20225;-84
2022/06/01 10:47:55;;;;;;;0.98;0.98;;;;;;;;;;5061480;28;20232;-83
2022/06/01 10:50:26;;;;;;;1.30;1.20;;;;;;;;;;5054676;28;20202;-84
2022/06/01 10:52:57;;;;;;;1.73;1.17;;;;;;;;;;5056867;28;20214;-83
2022/06/01 10:55:30;;;;;;;1.50;1.40;;;;;;;;;;5056500;28;20724;-83
2022/06/01 10:57:59;;;;;;;1.25;1.15;;;;;;;;;;5056221;28;20217;-83
2022/06/01 11:00:33;;;;;;;1.40;1.30;;;;;;;;;;5056059;28;20632;-84
2022/06/01 11:03:32;;;;;;;1.30;1.30;;;;;;;;;;5055417;28;20221;-84
2022/06/01 11:06:19;;;;;;;1.70;1.60;;;;;;;;;;5056328;28;20276;-83
2022/06/01 11:08:54;;;;;;;1.92;1.42;;;;;;;;;;5056077;28;20590;-85
2022/06/01 11:11:28;;;;;;;1.70;1.60;;;;;;;;;;5054865;28;20211;-83
2022/06/01 11:14:20;;;;;;;1.48;1.38;;;;;;;;;;5054415;28;20230;-84
2022/06/01 11:16:59;;;;;;;1.17;0.90;;;;;;;;;;5044858;28;20234;-84
2022/06/01 11:19:44;;;;;;;0.70;0.70;;;;;;;;;;5055767;28;20228;-84
2022/06/01 11:22:31;;;;;;;0.98;0.98;;;;;;;;;;5056439;28;20244;-84
2022/06/01 11:25:16;;;;;;;1.80;1.00;;;;;;;;;;5055631;28;20201;-84
2022/06/01 11:28:02;;;;;;;1.10;1.10;;;;;;;;;;5054902;28;20201;-84
2022/06/01 11:30:35;;;;;;;2.63;1.85;;;;;;;;;;5057554;28;20201;-84
2022/06/01 11:33:09;;;;;;;1.10;1.02;;;;;;;;;;5051259;28;20213;-82
2022/06/01 11:35:40;;;;;;;1.20;1.20;;;;;;;;;;5057605;28;20233;-82
2022/06/01 11:38:20;;;;;;;2.35;1.30;;;;;;;;;;5058290;28;20678;-85
2022/06/01 11:40:52;;;;;;;1.02;1.02;;;;;;;;;;5056797;28;20216;-83
2022/06/01 11:43:28;;;;;;;1.30;1.10;;;;;;;;;;5058209;28;20240;-81
2022/06/01 11:45:59;;;;;;;1.20;1.20;;;;;;;;;;5057350;28;20264;-83
2022/06/01 11:48:31;;;;;;;1.10;1.10;;;;;;;;;;5070611;28;20210;-83
2022/06/01 11:51:13;;;;;;;1.00;1.00;;;;;;;;;;5058835;28;20209;-85
2022/06/01 11:53:59;;;;;;;1.13;1.02;;;;;;;;;;5064486;28;20223;-83
2022/06/01 11:56:37;;;;;;;1.33;1.27;;;;;;;;;;5061321;28;20248;-83
2022/06/01 11:59:22;;;;;;;1.15;1.10;;;;;;;;;;5063105;28;20205;-83
2022/06/01 12:01:56;;;;;;;0.70;0.70;;;;;;;;;;5057820;28;20620;-84
2022/06/01 12:04:30;;;;;;;2.35;1.20;;;;;;;;;;5065316;28;20201;-83
2022/06/01 12:07:02;;;;;;;1.10;1.10;;;;;;;;;;5063289;28;20230;-82
2022/06/01 12:09:40;;;;;;;0.68;0.68;;;;;;;;;;5065478;28;20220;-83
2022/06/01 12:12:22;;;;;;;1.38;1.15;;;;;;;;;;5065989;28;20204;-82
2022/06/01 12:17:34;;;;;;;0.73;0.73;;;;;;;;;;5031053;28;20210;-77
2022/06/01 12:20:47;;;;;;;0.90;0.90;;;;;;;;;;5027958;28;20217;-80
2022/06/01 12:29:54;;;;;;;1.20;1.10;;;;;;;;;;4940013;29;20210;-78
2022/06/01 12:32:22;;;;;;;1.00;1.00;;;;;;;;;;4950355;28;20253;-77
2022/06/01 12:35:07;;;;;;;1.00;1.00;;;;;;;;;;4995288;28;20226;-77
2022/06/01 12:37:40;;;;;;;0.80;0.80;;;;;;;;;;5034318;28;20857;-78
2022/06/01 12:40:14;;;;;;;1.05;0.98;;;;;;;;;;5032437;28;20203;-78
2022/06/01 12:42:52;;;;;;;1.10;1.10;;;;;;;;;;5031162;28;20588;-80
2022/06/01 12:45:22;;;;;;;0.80;0.80;;;;;;;;;;5032201;28;20257;-79
2022/06/01 12:47:58;;;;;;;0.77;0.77;;;;;;;;;;5032256;28;20202;-78
2022/06/01 12:50:30;;;;;;;0.85;0.85;;;;;;;;;;5032371;28;20206;-76
2022/06/01 12:53:13;;;;;;;0.90;0.90;;;;;;;;;;5029631;28;20265;-77
2022/06/01 12:55:41;;;;;;;1.00;1.00;;;;;;;;;;5029613;28;20725;-77
2022/06/01 12:58:20;;;;;;;1.13;1.02;;;;;;;;;;5029910;28;20271;-78
2022/06/01 13:00:55;;;;;;;0.98;0.98;;;;;;;;;;5029251;28;20301;-78
2022/06/01 13:03:28;;;;;;;0.80;0.80;;;;;;;;;;5030119;28;20209;-77
2022/06/01 13:05:59;;;;;;;1.13;0.85;;;;;;;;;;5024529;28;20230;-77
2022/06/01 13:08:31;;;;;;;1.08;1.08;;;;;;;;;;5031002;28;20265;-77
2022/06/01 13:10:58;;;;;;;1.08;0.98;;;;;;;;;;5032927;28;20289;-77
2022/06/01 13:13:29;;;;;;;1.02;0.90;;;;;;;;;;5028926;28;20202;-78
2022/06/01 13:16:01;;;;;;;1.05;1.05;;;;;;;;;;5030823;28;20283;-77
2022/06/01 13:18:33;;;;;;;1.00;1.00;;;;;;;;;;5031649;28;20205;-78
2022/06/01 13:21:08;;;;;;;1.20;1.10;;;;;;;;;;5032017;28;20499;-78
2022/06/01 13:23:48;;;;;;;1.35;1.10;;;;;;;;;;5030771;28;20297;-78
2022/06/01 13:26:28;;;;;;;1.00;0.90;;;;;;;;;;5031513;28;20241;-77
2022/06/01 13:28:56;;;;;;;0.82;0.82;;;;;;;;;;5031435;28;20213;-78
2022/06/01 13:31:24;;;;;;;0.82;0.82;;;;;;;;;;5030907;28;20201;-77
2022/06/01 13:33:51;;;;;;;1.10;0.80;;;;;;;;;;5029619;28;20256;-77
2022/06/01 13:36:30;;;;;;;2.75;1.67;;;;;;;;;;5029014;28;20230;-77
2022/06/01 13:39:09;;;;;;;1.33;0.80;;;;;;;;;;5031270;28;20210;-77
2022/06/01 13:41:41;;;;;;;0.70;0.70;;;;;;;;;;5030222;28;20243;-77
2022/06/01 13:44:13;;;;;;;1.42;1.20;;;;;;;;;;5030412;28;20206;-77
2022/06/01 13:46:43;;;;;;;1.13;1.13;;;;;;;;;;5029806;28;20229;-77
2022/06/01 13:49:14;;;;;;;1.05;1.05;;;;;;;;;;5031094;28;20210;-77
2022/06/01 13:51:47;;;;;;;0.90;0.90;;;;;;;;;;5030617;28;20202;-77
2022/06/01 13:54:32;;;;;;;0.77;0.77;;;;;;;;;;5024677;28;20625;-77
2022/06/01 13:57:11;;;;;;;2.15;1.38;;;;;;;;;;5030903;28;20240;-77
2022/06/01 13:59:50;;;;;;;2.33;1.38;;;;;;;;;;5031280;28;20364;-77
2022/06/01 14:02:22;;;;;;;1.05;1.00;;;;;;;;;;5029953;28;20626;-76
2022/06/01 14:05:00;;;;;;;1.00;1.00;;;;;;;;;;5030567;28;20202;-77
2022/06/01 14:07:43;;;;;;;1.00;1.00;;;;;;;;;;5031198;28;20218;-77
2022/06/01 14:10:14;;;;;;;0.70;0.70;;;;;;;;;;5031633;28;20230;-77
2022/06/01 14:12:44;;;;;;;0.80;0.80;;;;;;;;;;5032832;28;20210;-77
2022/06/01 14:15:13;;;;;;;0.90;0.90;;;;;;;;;;5033793;28;20230;-77
2022/06/01 14:17:43;;;;;;;0.80;0.80;;;;;;;;;;5034648;28;20293;-77
2022/06/01 14:20:13;;;;;;;0.93;0.93;;;;;;;;;;5034619;28;20233;-77
2022/06/01 14:22:42;;;;;;;1.63;1.00;;;;;;;;;;5033750;28;20260;-77
2022/06/01 14:30:40;;;;;;;0.77;0.77;;;;;;;;;;5034020;28;20213;-77
2022/06/01 14:33:12;;;;;;;0.80;0.80;;;;;;;;;;5033268;28;20568;-77
2022/06/01 14:35:39;;;;;;;0.80;0.80;;;;;;;;;;5033844;28;20608;-77
2022/06/01 14:38:08;;;;;;;0.95;0.95;;;;;;;;;;5033838;28;20237;-77
2022/06/01 14:40:36;;;;;;;0.70;0.70;;;;;;;;;;5033974;28;20313;-77
2022/06/01 14:43:07;;;;;;;1.05;0.80;;;;;;;;;;5033224;28;20208;-77
2022/06/01 14:45:34;;;;;;;0.77;0.77;;;;;;;;;;5034053;28;20595;-77
2022/06/01 14:48:01;;;;;;;0.65;0.65;;;;;;;;;;5033938;28;20256;-77
2022/06/01 14:50:29;;;;;;;0.70;0.70;;;;;;;;;;5033215;28;20213;-77
2022/06/01 14:52:56;;;;;;;1.02;0.82;;;;;;;;;;5032579;28;20210;-77
2022/06/01 14:55:26;;;;;;;0.80;0.80;;;;;;;;;;5033438;28;20283;-77
2022/06/01 14:57:53;;;;;;;0.68;0.68;;;;;;;;;;5034163;28;20210;-77
2022/06/01 15:00:21;;;;;;;0.80;0.80;;;;;;;;;;5034196;28;20735;-77
2022/06/01 15:02:51;;;;;;;1.10;1.00;;;;;;;;;;5032309;28;20214;-77
2022/06/01 15:05:18;;;;;;;1.00;1.00;;;;;;;;;;5034099;28;20226;-77
2022/06/01 15:07:45;;;;;;;0.73;0.73;;;;;;;;;;5033383;28;20214;-77
2022/06/01 15:10:13;;;;;;;0.90;0.90;;;;;;;;;;5039834;28;20582;-77
2022/06/01 15:12:41;;;;;;;0.80;0.80;;;;;;;;;;5032587;28;20202;-77
2022/06/01 15:15:10;;;;;;;0.65;0.65;;;;;;;;;;5032217;28;20227;-77
2022/06/01 15:17:38;;;;;;;0.90;0.90;;;;;;;;;;5033148;28;20258;-77
2022/06/01 15:20:08;;;;;;;1.20;0.88;;;;;;;;;;5033168;28;20256;-77
2022/06/01 15:22:35;;;;;;;0.70;0.70;;;;;;;;;;5031901;28;20206;-77
2022/06/01 15:25:03;;;;;;;0.80;0.80;;;;;;;;;;5034250;28;20276;-76
2022/06/01 15:27:33;;;;;;;0.80;0.70;;;;;;;;;;5035962;28;20261;-77
2022/06/01 15:41:12;;;;;;;0.75;0.75;;;;;;;;;;4981615;28;20745;-76
2022/06/01 15:43:40;;;;;;;0.50;0.50;;;;;;;;;;5013060;28;20207;-76
2022/06/01 15:46:10;;;;;;;1.05;0.95;;;;;;;;;;5013334;28;20223;-76
2022/06/01 15:48:38;;;;;;;1.17;1.02;;;;;;;;;;5013389;28;20214;-81
2022/06/01 15:51:05;;;;;;;1.30;1.20;;;;;;;;;;5013675;28;20210;-77
2022/06/01 15:53:32;;;;;;;1.65;1.00;;;;;;;;;;5012604;28;20206;-76
2022/06/01 15:56:01;;;;;;;2.08;1.58;;;;;;;;;;5012719;28;20592;-77
2022/06/01 15:58:28;;;;;;;0.85;0.85;;;;;;;;;;5013177;28;20301;-76
2022/06/01 16:00:56;;;;;;;2.17;1.20;;;;;;;;;;5028434;28;20283;-76